Dufftown, United Kingdom
Current Conditions -  °F | °C
As of 4:50 PM on Saturday 25 Oct 2014 (Local Time) from EGQS Reporting Station
Clear Clear  
Wind Chill: 12°   Ceiling: Unl
Heat Index: 12°   Visibility: 6mi
Dew Point:   Wind: 37mph
Humidity: 54%   Direction: 240°WSW
Pressure: 29.44"   Gusts: 49mph
Location:  57.43°N, 3.13°W
Report Text: EGQS 251550Z 24032G43KT CAVOK 12/03 Q0997 BLU
Loading
Personal Weather Stations






























Interactive Weather Map
Tropical Storm Tracking
New forecast layout! Learn more

10-Day Weather Forecast

Advertisements
Track Severe Weather on mobile